Time;durP1;ratioP1;P1;durP2;ratioP2;P2;SDS_P1;SDS_P2;PMS_P1;PMS_P2;Temp;Humidity;BMP_temperature;BMP_pressure;BME280_temperature;BME280_humidity;BME280_pressure;Samples;Min_cycle;Max_cycle;Signal;HPM_P1;HPM_P2
2023/10/27 00:01:34;;;;;;;5.00;2.93;;;12.20;98.00;;;;;;5075057;28;20497;-88
2023/10/27 00:04:01;;;;;;;3.40;2.20;;;12.20;98.00;;;;;;5075290;28;20442;-88
2023/10/27 00:06:32;;;;;;;5.00;2.67;;;12.20;98.00;;;;;;5075478;28;20456;-88
2023/10/27 00:08:59;;;;;;;4.10;2.30;;;12.30;98.00;;;;;;5075813;28;20536;-88
2023/10/27 00:11:27;;;;;;;4.73;2.20;;;12.20;98.00;;;;;;5079786;28;20480;-88
2023/10/27 00:13:54;;;;;;;8.23;2.50;;;12.20;98.00;;;;;;5079661;28;20651;-87
2023/10/27 00:16:22;;;;;;;2.97;2.00;;;12.30;98.00;;;;;;5078796;28;20453;-88
2023/10/27 00:18:50;;;;;;;3.20;1.83;;;12.20;98.00;;;;;;5079599;28;21084;-88
2023/10/27 00:21:17;;;;;;;4.90;2.43;;;12.30;98.00;;;;;;5079475;28;20491;-88
2023/10/27 00:23:45;;;;;;;2.77;1.83;;;12.20;98.00;;;;;;5079146;28;20466;-88
2023/10/27 00:26:13;;;;;;;2.20;1.77;;;12.20;98.00;;;;;;5079221;28;20474;-88
2023/10/27 00:28:40;;;;;;;2.80;1.70;;;12.30;98.00;;;;;;5079484;28;20446;-87
2023/10/27 00:31:07;;;;;;;4.23;2.00;;;12.10;98.00;;;;;;5079499;28;20978;-88
2023/10/27 00:33:34;;;;;;;3.53;1.90;;;12.10;98.00;;;;;;5079537;28;20431;-88
2023/10/27 00:36:03;;;;;;;2.83;2.07;;;12.00;98.00;;;;;;5078922;28;21012;-88
2023/10/27 00:38:30;;;;;;;4.53;1.90;;;11.90;98.00;;;;;;5078763;28;20466;-88
2023/10/27 00:40:57;;;;;;;5.10;1.90;;;12.00;98.00;;;;;;5079065;28;20542;-87
2023/10/27 00:43:24;;;;;;;7.60;1.80;;;12.00;98.00;;;;;;5079465;28;20506;-88
2023/10/27 00:45:53;;;;;;;2.93;2.00;;;12.10;98.00;;;;;;5078891;28;20464;-88
2023/10/27 00:48:21;;;;;;;3.90;1.87;;;12.10;98.00;;;;;;5078850;28;20452;-87
2023/10/27 00:50:48;;;;;;;3.50;1.70;;;12.10;98.00;;;;;;5079099;28;20521;-88
2023/10/27 00:53:20;;;;;;;3.90;2.03;;;12.00;98.00;;;;;;5078963;28;20460;-87
2023/10/27 00:55:49;;;;;;;3.17;2.00;;;12.00;98.00;;;;;;5079362;28;20479;-88
2023/10/27 00:58:17;;;;;;;3.37;1.90;;;11.90;98.00;;;;;;5078529;28;20454;-88
2023/10/27 01:00:44;;;;;;;2.60;1.80;;;11.90;98.00;;;;;;5078931;28;20475;-88
2023/10/27 01:03:11;;;;;;;4.23;2.20;;;11.90;98.00;;;;;;5079779;28;20470;-88
2023/10/27 01:05:38;;;;;;;2.77;1.93;;;11.90;98.00;;;;;;5078509;28;20952;-87
2023/10/27 01:08:06;;;;;;;3.20;2.00;;;11.90;98.00;;;;;;5079514;28;20448;-87
2023/10/27 01:10:34;;;;;;;2.33;1.97;;;11.80;98.00;;;;;;5079674;28;20469;-88
2023/10/27 01:13:01;;;;;;;4.13;2.23;;;11.90;98.00;;;;;;5079734;28;20474;-88
2023/10/27 01:15:30;;;;;;;3.73;2.10;;;11.90;98.00;;;;;;5079532;28;20956;-88
2023/10/27 01:17:57;;;;;;;4.07;1.80;;;11.90;98.00;;;;;;5079232;28;20590;-88
2023/10/27 01:20:24;;;;;;;3.33;2.00;;;11.90;98.00;;;;;;5078670;28;20460;-88
2023/10/27 01:22:52;;;;;;;4.40;1.70;;;11.90;98.00;;;;;;5079291;28;20528;-88
2023/10/27 01:25:20;;;;;;;3.23;2.00;;;11.90;98.00;;;;;;5078910;28;20442;-88
2023/10/27 01:27:47;;;;;;;6.10;2.20;;;11.90;98.00;;;;;;5079214;28;20861;-87
2023/10/27 01:30:14;;;;;;;5.00;1.93;;;11.90;98.00;;;;;;5078820;28;20452;-88
2023/10/27 01:32:43;;;;;;;2.40;1.63;;;11.90;98.00;;;;;;5078880;28;20455;-88
2023/10/27 01:35:11;;;;;;;2.50;1.77;;;11.90;98.00;;;;;;5078409;28;20514;-88
2023/10/27 01:37:38;;;;;;;2.57;1.50;;;12.00;98.00;;;;;;5078593;28;20447;-87
2023/10/27 01:40:08;;;;;;;2.23;1.60;;;12.00;98.00;;;;;;5078963;28;20859;-87
2023/10/27 01:42:36;;;;;;;2.50;1.50;;;11.90;98.00;;;;;;5078692;28;20485;-87
2023/10/27 01:45:04;;;;;;;2.10;1.53;;;11.90;98.00;;;;;;5078358;28;20494;-88
2023/10/27 01:47:32;;;;;;;2.00;1.63;;;12.00;98.00;;;;;;5077858;28;20500;-87
2023/10/27 01:49:59;;;;;;;7.23;1.63;;;11.90;98.00;;;;;;5078154;28;20453;-88
2023/10/27 01:52:26;;;;;;;3.00;1.70;;;11.90;98.00;;;;;;5078190;28;20476;-87
2023/10/27 01:54:54;;;;;;;4.13;1.70;;;11.80;98.00;;;;;;5078017;28;20463;-87
2023/10/27 01:57:24;;;;;;;2.80;1.60;;;11.80;98.00;;;;;;5078463;28;20472;-87
2023/10/27 01:59:51;;;;;;;2.93;1.60;;;11.80;98.00;;;;;;5077954;28;20440;-87
2023/10/27 02:02:19;;;;;;;4.40;1.70;;;11.80;98.00;;;;;;5078499;28;20492;-87
2023/10/27 02:04:46;;;;;;;2.20;1.47;;;11.80;98.00;;;;;;5078053;28;20458;-87
2023/10/27 02:07:15;;;;;;;3.57;1.63;;;11.80;98.00;;;;;;5077955;28;20441;-88
2023/10/27 02:09:42;;;;;;;3.37;1.57;;;11.80;98.00;;;;;;5077603;28;20506;-88
2023/10/27 02:12:10;;;;;;;2.27;1.70;;;11.70;98.00;;;;;;5077689;28;20518;-87
2023/10/27 02:14:38;;;;;;;1.50;1.20;;;11.70;98.00;;;;;;5077091;28;20958;-87
2023/10/27 02:17:05;;;;;;;1.53;1.30;;;11.70;98.00;;;;;;5077068;28;20464;-87
2023/10/27 02:19:33;;;;;;;1.67;1.33;;;11.60;98.00;;;;;;5077163;28;20455;-88
2023/10/27 02:22:00;;;;;;;2.83;1.50;;;11.60;98.00;;;;;;5076938;28;20488;-87
2023/10/27 02:24:27;;;;;;;2.13;1.50;;;11.60;98.00;;;;;;5077379;28;20467;-87
2023/10/27 02:26:54;;;;;;;2.93;1.60;;;11.60;98.00;;;;;;5077615;28;20448;-88
2023/10/27 02:29:21;;;;;;;3.00;1.47;;;11.60;98.00;;;;;;5077461;28;20474;-87
2023/10/27 02:31:50;;;;;;;2.13;1.47;;;11.50;98.00;;;;;;5077055;28;20473;-87
2023/10/27 02:34:17;;;;;;;2.00;1.83;;;11.60;98.00;;;;;;5077686;28;20463;-89
2023/10/27 02:36:44;;;;;;;2.60;1.40;;;11.60;98.00;;;;;;5076995;28;20471;-88
2023/10/27 02:39:11;;;;;;;2.00;1.60;;;11.70;98.00;;;;;;5077705;28;20519;-88
2023/10/27 02:41:38;;;;;;;2.23;1.30;;;11.70;98.00;;;;;;5077089;28;20489;-87
2023/10/27 02:44:06;;;;;;;2.27;1.60;;;11.70;98.00;;;;;;5077066;28;20442;-87
2023/10/27 02:46:33;;;;;;;2.37;1.37;;;11.70;98.00;;;;;;5076887;28;20473;-87
2023/10/27 02:49:03;;;;;;;2.20;1.23;;;11.70;98.00;;;;;;5076416;28;20564;-87
2023/10/27 02:51:31;;;;;;;1.60;1.37;;;11.70;98.00;;;;;;5076996;28;20473;-88
2023/10/27 02:53:59;;;;;;;2.33;1.30;;;11.80;98.00;;;;;;5076873;28;21013;-87
2023/10/27 02:56:26;;;;;;;2.63;1.47;;;11.70;98.00;;;;;;5076298;28;20440;-88
2023/10/27 02:58:53;;;;;;;1.70;1.20;;;11.80;98.00;;;;;;5076634;28;20867;-87
2023/10/27 03:01:20;;;;;;;1.70;1.33;;;11.80;98.00;;;;;;5077191;28;20477;-87
2023/10/27 03:03:47;;;;;;;1.97;1.30;;;11.80;98.00;;;;;;5076246;28;20456;-87
2023/10/27 03:06:15;;;;;;;2.67;1.27;;;11.80;98.00;;;;;;5076894;28;20450;-87
2023/10/27 03:08:43;;;;;;;3.20;1.37;;;11.90;98.00;;;;;;5076837;28;20464;-88
2023/10/27 03:11:10;;;;;;;3.53;1.53;;;11.80;98.00;;;;;;5076655;28;20512;-88
2023/10/27 03:13:37;;;;;;;1.70;1.33;;;11.70;98.00;;;;;;5075968;28;20456;-87
2023/10/27 03:16:05;;;;;;;4.70;1.47;;;11.70;98.00;;;;;;5076527;28;20456;-88
2023/10/27 03:18:32;;;;;;;1.90;1.30;;;11.50;98.00;;;;;;5076074;28;20990;-87
2023/10/27 03:21:00;;;;;;;1.40;1.30;;;11.50;98.00;;;;;;5076939;28;20988;-87
2023/10/27 03:23:29;;;;;;;2.30;1.37;;;11.60;98.00;;;;;;5076545;28;20495;-88
2023/10/27 03:25:58;;;;;;;3.33;1.40;;;11.50;98.00;;;;;;5076626;28;20813;-88
2023/10/27 03:28:25;;;;;;;1.43;1.27;;;11.40;98.00;;;;;;5076435;28;20496;-87
2023/10/27 03:30:51;;;;;;;1.97;1.40;;;11.30;98.00;;;;;;5075912;28;20482;-87
2023/10/27 03:33:19;;;;;;;3.73;1.50;;;11.30;98.00;;;;;;5076034;28;20538;-88
2023/10/27 03:35:46;;;;;;;1.70;1.40;;;11.30;98.00;;;;;;5076919;28;20448;-88
2023/10/27 03:38:14;;;;;;;1.40;1.20;;;11.20;98.00;;;;;;5076681;28;20463;-87
2023/10/27 03:40:43;;;;;;;1.50;1.40;;;11.20;98.00;;;;;;5076121;28;20569;-88
2023/10/27 03:43:10;;;;;;;2.90;1.20;;;11.10;98.00;;;;;;5075883;28;20483;-88
2023/10/27 03:45:38;;;;;;;3.17;1.70;;;11.00;98.00;;;;;;5076125;28;20465;-87
2023/10/27 03:48:05;;;;;;;1.23;1.17;;;11.00;98.00;;;;;;5076438;28;20796;-88
2023/10/27 03:50:33;;;;;;;1.50;1.30;;;10.90;98.00;;;;;;5075612;28;20476;-88
2023/10/27 03:53:00;;;;;;;3.83;1.40;;;11.00;98.00;;;;;;5074731;28;20456;-87
2023/10/27 03:55:27;;;;;;;1.60;1.30;;;11.00;98.00;;;;;;5072593;28;20461;-88
2023/10/27 03:57:55;;;;;;;1.50;1.20;;;11.00;98.00;;;;;;5073707;28;20483;-88
2023/10/27 04:00:24;;;;;;;2.90;1.30;;;11.00;98.00;;;;;;5073428;28;20917;-88
2023/10/27 04:02:51;;;;;;;1.40;1.33;;;11.10;98.00;;;;;;5076872;28;20543;-88
2023/10/27 04:05:19;;;;;;;1.50;1.33;;;11.10;98.00;;;;;;5076154;28;20511;-88
2023/10/27 04:07:46;;;;;;;1.80;1.30;;;11.00;98.00;;;;;;5075074;28;20496;-87
2023/10/27 04:10:13;;;;;;;1.83;1.40;;;11.00;98.00;;;;;;5075881;28;20496;-88
2023/10/27 04:12:40;;;;;;;1.50;1.20;;;11.00;98.00;;;;;;5076821;28;20445;-87
2023/10/27 04:15:10;;;;;;;2.57;1.60;;;11.00;98.00;;;;;;5075888;28;20453;-87
2023/10/27 04:17:37;;;;;;;2.13;1.50;;;11.00;98.00;;;;;;5075812;28;20444;-88
2023/10/27 04:20:05;;;;;;;4.33;1.40;;;11.10;98.00;;;;;;5076097;28;20437;-88
2023/10/27 04:22:32;;;;;;;2.03;1.50;;;11.00;98.00;;;;;;5075632;28;20491;-87
2023/10/27 04:24:59;;;;;;;2.20;1.60;;;11.00;98.00;;;;;;5075110;28;20451;-87
2023/10/27 04:27:28;;;;;;;3.13;2.10;;;11.00;98.00;;;;;;5076024;28;20455;-87
2023/10/27 04:29:56;;;;;;;2.23;1.50;;;11.00;98.00;;;;;;5076054;28;20497;-88
2023/10/27 04:32:26;;;;;;;2.23;1.50;;;10.90;98.00;;;;;;5075503;28;20490;-88
2023/10/27 04:34:53;;;;;;;3.90;1.37;;;10.90;98.00;;;;;;5075668;28;20451;-88
2023/10/27 04:37:20;;;;;;;2.50;1.50;;;10.80;98.00;;;;;;5075233;28;20488;-87
2023/10/27 04:39:47;;;;;;;4.77;1.40;;;10.90;98.00;;;;;;5075269;28;20452;-87
2023/10/27 04:42:14;;;;;;;4.90;1.53;;;11.00;98.00;;;;;;5075528;28;20496;-87
2023/10/27 04:44:41;;;;;;;2.70;1.50;;;11.00;98.00;;;;;;5075481;28;20457;-88
2023/10/27 04:47:08;;;;;;;1.80;1.40;;;11.00;98.00;;;;;;5075613;28;20466;-87
2023/10/27 04:49:37;;;;;;;1.43;1.30;;;10.90;98.00;;;;;;5074887;28;20947;-87
2023/10/27 04:52:05;;;;;;;1.60;1.43;;;10.90;98.00;;;;;;5074815;28;20480;-88
2023/10/27 04:54:34;;;;;;;1.47;1.30;;;10.80;98.00;;;;;;5074909;28;20460;-87
2023/10/27 04:57:03;;;;;;;2.60;1.40;;;10.70;98.00;;;;;;5079069;28;20455;-87
2023/10/27 04:59:30;;;;;;;1.87;1.37;;;10.80;98.00;;;;;;5078878;28;20454;-89
2023/10/27 05:01:57;;;;;;;3.00;1.57;;;10.80;98.00;;;;;;5078661;28;20487;-88
2023/10/27 05:04:24;;;;;;;1.47;1.20;;;10.80;98.00;;;;;;5079002;28;20470;-88
2023/10/27 05:06:52;;;;;;;2.30;1.40;;;10.80;98.00;;;;;;5078792;28;20455;-87
2023/10/27 05:09:19;;;;;;;1.43;1.40;;;10.70;98.00;;;;;;5078460;28;20469;-88
2023/10/27 05:11:47;;;;;;;1.40;1.30;;;10.70;98.00;;;;;;5078171;28;20474;-87
2023/10/27 05:14:14;;;;;;;1.70;1.30;;;10.80;98.00;;;;;;5077270;28;20465;-89
2023/10/27 05:16:42;;;;;;;1.97;1.43;;;10.80;98.00;;;;;;5077134;28;20455;-88
2023/10/27 05:19:09;;;;;;;2.17;1.70;;;10.70;98.00;;;;;;5077471;28;20461;-90
2023/10/27 05:21:36;;;;;;;6.93;1.67;;;10.70;98.00;;;;;;5076782;28;20483;-89
2023/10/27 05:24:05;;;;;;;6.83;1.73;;;10.70;98.00;;;;;;5078700;28;20477;-88
2023/10/27 05:26:34;;;;;;;2.17;1.30;;;10.70;98.00;;;;;;5079161;28;20934;-88
2023/10/27 05:29:02;;;;;;;1.97;1.50;;;10.80;98.00;;;;;;5080440;28;20438;-87
2023/10/27 05:31:29;;;;;;;9.80;1.70;;;10.80;98.00;;;;;;5083189;28;20983;-88
2023/10/27 05:33:58;;;;;;;2.93;1.77;;;10.80;98.00;;;;;;5083163;28;20487;-88
2023/10/27 05:36:26;;;;;;;2.23;1.80;;;11.00;98.00;;;;;;5082277;28;20862;-88
2023/10/27 05:38:56;;;;;;;3.50;2.20;;;11.10;98.00;;;;;;5080466;28;20818;-88
2023/10/27 05:41:27;;;;;;;3.23;2.17;;;11.10;98.00;;;;;;5076228;28;20485;-88
2023/10/27 05:43:54;;;;;;;3.37;2.33;;;11.30;98.00;;;;;;5075487;28;20528;-88
2023/10/27 05:46:21;;;;;;;4.80;2.60;;;11.30;98.00;;;;;;5076364;28;20461;-88
2023/10/27 05:48:49;;;;;;;5.03;2.63;;;11.10;98.00;;;;;;5076306;28;20458;-88
2023/10/27 05:51:24;;;;;;;3.53;1.97;;;11.10;98.00;;;;;;5075898;28;20507;-89
2023/10/27 05:53:51;;;;;;;2.70;2.23;;;11.10;98.00;;;;;;5075374;28;20447;-88
2023/10/27 05:56:18;;;;;;;3.40;2.20;;;11.10;98.00;;;;;;5075688;28;20805;-88
2023/10/27 05:58:47;;;;;;;3.90;2.37;;;11.10;98.00;;;;;;5074533;28;20455;-87
2023/10/27 06:01:14;;;;;;;2.37;1.67;;;11.10;98.00;;;;;;5074213;28;20477;-87
2023/10/27 06:03:41;;;;;;;3.17;1.83;;;11.10;98.00;;;;;;5073993;28;20477;-87
2023/10/27 06:06:08;;;;;;;4.63;1.70;;;11.10;98.00;;;;;;5074317;28;20954;-87
2023/10/27 06:08:41;;;;;;;11.03;2.07;;;11.10;98.00;;;;;;5073480;28;20832;-87
2023/10/27 06:11:08;;;;;;;4.43;1.73;;;11.00;98.00;;;;;;5074222;28;20530;-87
2023/10/27 06:13:35;;;;;;;2.53;1.97;;;11.00;98.00;;;;;;5074109;28;20971;-87
2023/10/27 06:16:07;;;;;;;2.53;1.70;;;11.00;98.00;;;;;;5074292;28;20455;-88
2023/10/27 06:18:34;;;;;;;2.40;1.77;;;11.10;98.00;;;;;;5074311;28;20516;-88
2023/10/27 06:21:02;;;;;;;3.30;1.90;;;11.20;98.00;;;;;;5073731;28;20508;-88
2023/10/27 06:23:29;;;;;;;2.77;1.63;;;11.30;98.00;;;;;;5073533;28;20527;-87
2023/10/27 06:25:57;;;;;;;4.13;2.27;;;11.40;98.00;;;;;;5073950;28;20463;-88
2023/10/27 06:28:25;;;;;;;3.97;1.93;;;11.30;98.00;;;;;;5075063;28;20459;-88
2023/10/27 06:30:52;;;;;;;3.07;2.03;;;11.20;98.00;;;;;;5074824;28;20474;-89
2023/10/27 06:33:23;;;;;;;2.57;1.90;;;11.20;98.00;;;;;;5073697;28;20460;-87
2023/10/27 06:35:53;;;;;;;1.97;1.60;;;11.30;98.00;;;;;;5074374;28;20453;-88
2023/10/27 06:38:29;;;;;;;4.40;2.07;;;11.20;98.00;;;;;;5075197;28;20435;-87
2023/10/27 06:40:56;;;;;;;5.40;2.17;;;11.20;98.00;;;;;;5074667;28;20475;-87
2023/10/27 06:43:23;;;;;;;2.33;1.80;;;11.20;98.00;;;;;;5074114;28;20482;-87
2023/10/27 06:45:50;;;;;;;2.37;1.70;;;11.20;98.00;;;;;;5073942;28;20464;-88
2023/10/27 06:48:17;;;;;;;4.23;2.00;;;11.30;98.00;;;;;;5074110;28;20460;-86
2023/10/27 06:50:46;;;;;;;2.83;1.93;;;11.40;98.00;;;;;;5074713;28;20480;-87
2023/10/27 06:53:20;;;;;;;3.37;2.40;;;11.50;98.00;;;;;;5075019;28;20462;-86
2023/10/27 06:55:47;;;;;;;3.07;2.17;;;11.40;98.00;;;;;;5073747;28;20442;-86
2023/10/27 06:58:14;;;;;;;4.13;2.53;;;11.40;98.00;;;;;;5073589;28;20509;-86
2023/10/27 07:00:41;;;;;;;3.30;2.33;;;11.40;98.00;;;;;;5073585;28;20528;-87
2023/10/27 07:03:17;;;;;;;2.90;2.20;;;11.40;98.00;;;;;;5073860;28;20492;-87
2023/10/27 07:05:47;;;;;;;5.60;2.60;;;11.50;98.00;;;;;;5073224;28;20465;-86
2023/10/27 07:08:14;;;;;;;2.97;2.13;;;11.40;98.00;;;;;;5074643;28;20459;-86
2023/10/27 07:10:43;;;;;;;3.33;2.00;;;11.50;98.00;;;;;;5073959;28;20482;-86
2023/10/27 07:13:10;;;;;;;2.43;1.63;;;11.40;98.00;;;;;;5073783;28;20460;-87
2023/10/27 07:15:40;;;;;;;3.73;1.80;;;11.70;98.00;;;;;;5073426;28;20853;-88
2023/10/27 07:18:07;;;;;;;2.53;1.60;;;12.40;98.00;;;;;;5072974;28;20918;-87
2023/10/27 07:20:39;;;;;;;2.00;1.60;;;12.80;98.00;;;;;;5073013;28;20887;-86
2023/10/27 07:23:07;;;;;;;2.47;1.70;;;13.00;98.00;;;;;;5073479;28;20501;-86
2023/10/27 07:25:49;;;;;;;4.40;1.60;;;13.00;98.00;;;;;;5072960;28;20975;-86
2023/10/27 07:28:16;;;;;;;1.70;1.50;;;12.90;98.00;;;;;;5072922;28;20851;-86
2023/10/27 07:30:44;;;;;;;2.03;1.60;;;12.70;98.00;;;;;;5073114;28;20487;-86
2023/10/27 07:33:19;;;;;;;2.57;1.60;;;12.50;98.00;;;;;;5073183;28;20555;-86
2023/10/27 07:35:47;;;;;;;2.07;1.67;;;12.40;98.00;;;;;;5073113;28;20461;-87
2023/10/27 07:38:16;;;;;;;2.73;1.70;;;12.30;98.00;;;;;;5073342;28;20550;-87
2023/10/27 07:40:44;;;;;;;3.53;1.73;;;12.20;98.00;;;;;;5073526;28;20470;-88
2023/10/27 07:43:12;;;;;;;1.70;1.67;;;12.10;98.00;;;;;;5073010;28;20491;-88
2023/10/27 07:45:40;;;;;;;2.53;1.67;;;12.00;98.00;;;;;;5072663;28;21107;-87
2023/10/27 07:48:07;;;;;;;4.20;1.77;;;12.00;98.00;;;;;;5072516;28;20504;-87
2023/10/27 07:50:40;;;;;;;1.83;1.53;;;11.90;98.00;;;;;;5072625;28;20478;-87
2023/10/27 07:53:08;;;;;;;2.03;1.57;;;11.90;98.00;;;;;;5073340;28;20451;-88
2023/10/27 07:55:36;;;;;;;1.73;1.63;;;11.80;98.00;;;;;;5073869;28;20460;-89
2023/10/27 07:58:04;;;;;;;7.47;2.00;;;11.80;98.00;;;;;;5073765;28;20457;-89
2023/10/27 08:00:31;;;;;;;2.43;1.53;;;11.80;98.00;;;;;;5073377;28;20457;-89
2023/10/27 08:02:59;;;;;;;2.13;1.53;;;11.80;98.00;;;;;;5073344;28;20458;-89
2023/10/27 08:05:28;;;;;;;3.57;1.43;;;11.80;98.00;;;;;;5073271;28;20496;-89
2023/10/27 08:07:55;;;;;;;2.43;1.30;;;11.80;98.00;;;;;;5073475;28;20462;-88
2023/10/27 08:10:24;;;;;;;3.30;1.60;;;11.90;98.00;;;;;;5072991;28;20459;-87
2023/10/27 08:12:56;;;;;;;1.60;1.30;;;11.90;98.00;;;;;;5073146;28;20456;-88
2023/10/27 08:15:24;;;;;;;3.57;1.70;;;12.00;98.00;;;;;;5072442;28;20489;-89
2023/10/27 08:17:51;;;;;;;2.73;1.30;;;12.00;98.00;;;;;;5071918;28;20454;-88
2023/10/27 08:20:19;;;;;;;1.50;1.40;;;12.10;98.00;;;;;;5072444;28;20505;-88
2023/10/27 08:22:46;;;;;;;1.70;1.43;;;12.10;98.00;;;;;;5072583;28;20462;-88
2023/10/27 08:25:14;;;;;;;1.60;1.40;;;12.10;98.00;;;;;;5072466;28;20526;-88
2023/10/27 08:27:41;;;;;;;1.40;1.30;;;12.10;98.00;;;;;;5072603;28;20944;-88
2023/10/27 08:30:18;;;;;;;2.47;1.40;;;12.10;98.00;;;;;;5072823;28;20463;-88
2023/10/27 08:32:45;;;;;;;1.50;1.40;;;12.10;98.00;;;;;;5076655;28;20467;-89
2023/10/27 08:35:16;;;;;;;3.30;1.50;;;12.10;98.00;;;;;;5075997;28;20485;-88
2023/10/27 08:37:44;;;;;;;1.70;1.50;;;12.10;98.00;;;;;;5076762;28;20934;-89
2023/10/27 08:40:12;;;;;;;2.83;1.60;;;12.10;98.00;;;;;;5076700;28;21010;-88
2023/10/27 08:42:53;;;;;;;;;;;;;;;;;;;;;
2023/10/27 09:02:31;;;;;;;1.50;1.50;;;12.10;98.00;;;;;;5068941;22;20485;-62
2023/10/27 09:05:04;;;;;;;1.40;1.20;;;12.20;98.00;;;;;;5072495;28;20494;-63
2023/10/27 09:07:34;;;;;;;1.53;1.20;;;12.20;98.00;;;;;;5073289;28;20485;-62
2023/10/27 09:10:02;;;;;;;1.83;1.20;;;12.20;98.00;;;;;;5073733;28;20464;-62
2023/10/27 09:12:31;;;;;;;2.10;1.23;;;12.20;98.00;;;;;;5073763;28;20452;-62
2023/10/27 09:15:04;;;;;;;1.30;1.10;;;12.20;98.00;;;;;;5073640;28;20461;-62
2023/10/27 09:17:31;;;;;;;1.30;1.20;;;12.10;98.00;;;;;;5073651;28;20529;-63
2023/10/27 09:20:08;;;;;;;1.40;1.17;;;12.10;98.00;;;;;;5073073;28;20459;-62
2023/10/27 09:22:38;;;;;;;1.60;1.30;;;12.10;98.00;;;;;;5073485;28;20475;-62
2023/10/27 09:25:17;;;;;;;1.80;1.10;;;12.10;98.00;;;;;;5073453;28;20486;-62
2023/10/27 09:27:45;;;;;;;1.20;1.10;;;12.20;98.00;;;;;;5073461;28;20451;-63
2023/10/27 09:30:14;;;;;;;2.20;1.10;;;12.20;98.00;;;;;;5073411;28;20469;-63
2023/10/27 09:32:44;;;;;;;1.20;1.10;;;12.20;98.00;;;;;;5073482;28;20570;-63
2023/10/27 09:35:14;;;;;;;1.17;1.10;;;12.20;98.00;;;;;;5073595;28;20466;-62
2023/10/27 09:37:42;;;;;;;1.20;1.07;;;12.20;98.00;;;;;;5073312;28;20507;-62
2023/10/27 09:40:11;;;;;;;2.70;1.40;;;12.20;98.00;;;;;;5072281;28;20544;-63
2023/10/27 09:42:39;;;;;;;1.10;1.00;;;12.40;98.00;;;;;;5072984;28;20887;-62
2023/10/27 09:45:11;;;;;;;2.63;1.40;;;12.40;98.00;;;;;;5073350;28;20481;-62
2023/10/27 09:47:46;;;;;;;1.20;1.10;;;12.50;98.00;;;;;;5072959;28;20445;-62
2023/10/27 09:50:20;;;;;;;1.20;1.20;;;12.60;98.00;;;;;;5072949;28;20997;-62
2023/10/27 09:52:49;;;;;;;1.40;1.13;;;12.60;98.00;;;;;;5073180;28;20981;-62
2023/10/27 09:55:19;;;;;;;5.30;1.30;;;12.70;98.00;;;;;;5073541;28;20450;-62
2023/10/27 09:57:46;;;;;;;3.20;1.40;;;12.80;98.00;;;;;;5072970;28;20461;-63
2023/10/27 10:00:19;;;;;;;1.83;1.30;;;12.80;98.00;;;;;;5072989;28;20455;-62
2023/10/27 10:02:47;;;;;;;1.73;1.40;;;12.90;98.00;;;;;;5073277;28;20905;-62
2023/10/27 10:05:16;;;;;;;1.40;1.30;;;12.80;98.00;;;;;;5071421;28;20559;-62
2023/10/27 10:07:44;;;;;;;2.00;1.40;;;12.90;98.00;;;;;;5072783;28;20460;-63
2023/10/27 10:10:24;;;;;;;1.30;1.20;;;12.80;98.00;;;;;;5072763;28;20968;-62
2023/10/27 10:13:06;;;;;;;2.33;1.50;;;12.80;98.00;;;;;;5073024;28;20455;-62
2023/10/27 10:15:35;;;;;;;1.70;1.30;;;12.80;98.00;;;;;;5071016;28;20465;-62
2023/10/27 10:18:04;;;;;;;3.60;1.53;;;12.70;98.00;;;;;;5072954;28;20454;-62
2023/10/27 10:20:58;;;;;;;1.97;1.37;;;12.70;98.00;;;;;;5072533;28;20530;-62
2023/10/27 10:23:41;;;;;;;2.13;1.30;;;12.70;98.00;;;;;;5072824;28;20466;-63
2023/10/27 10:26:08;;;;;;;5.50;1.50;;;12.80;98.00;;;;;;5072652;28;20473;-62
2023/10/27 10:28:36;;;;;;;2.57;1.43;;;12.70;98.00;;;;;;5072529;28;20448;-62
2023/10/27 10:31:23;;;;;;;1.90;1.60;;;12.70;98.00;;;;;;5054722;28;20461;-62
2023/10/27 10:33:52;;;;;;;2.13;1.50;;;12.70;98.00;;;;;;5072261;28;20458;-62
2023/10/27 10:36:27;;;;;;;1.40;1.30;;;12.60;98.00;;;;;;5071394;28;20455;-62
2023/10/27 10:39:05;;;;;;;2.37;1.33;;;12.60;98.00;;;;;;5073211;28;20488;-62
2023/10/27 10:42:01;;;;;;;2.17;1.40;;;12.50;98.00;;;;;;5072159;28;20487;-63
2023/10/27 10:44:33;;;;;;;2.10;1.40;;;12.60;98.00;;;;;;5072962;28;20564;-63
2023/10/27 10:47:03;;;;;;;2.93;1.30;;;12.60;98.00;;;;;;5071396;28;20489;-62
2023/10/27 10:49:31;;;;;;;1.83;1.43;;;12.70;98.00;;;;;;5071874;28;20463;-63
2023/10/27 10:52:02;;;;;;;3.00;1.50;;;12.70;98.00;;;;;;5072138;28;20455;-63
2023/10/27 10:54:31;;;;;;;1.60;1.37;;;12.90;98.00;;;;;;5071389;28;20645;-62
2023/10/27 10:57:02;;;;;;;1.70;1.60;;;13.00;98.00;;;;;;5072137;28;20456;-63
2023/10/27 10:59:29;;;;;;;4.17;1.50;;;13.10;98.00;;;;;;5070572;28;20460;-62
2023/10/27 11:01:57;;;;;;;2.20;1.40;;;13.20;98.00;;;;;;5072016;28;20451;-63
2023/10/27 11:04:31;;;;;;;3.00;1.40;;;13.20;98.00;;;;;;5071672;28;20546;-63
2023/10/27 11:07:02;;;;;;;1.50;1.40;;;13.30;98.00;;;;;;5071711;28;20443;-63
2023/10/27 11:09:31;;;;;;;1.80;1.37;;;13.50;98.00;;;;;;5071760;28;20529;-62
2023/10/27 11:12:01;;;;;;;2.00;1.40;;;13.60;98.00;;;;;;5071744;28;20945;-63
2023/10/27 11:14:28;;;;;;;2.20;1.53;;;13.60;98.00;;;;;;5071717;28;20447;-62
2023/10/27 11:17:05;;;;;;;2.50;1.73;;;13.70;98.00;;;;;;5070490;28;20460;-63
2023/10/27 11:19:33;;;;;;;2.80;1.50;;;14.00;98.00;;;;;;5071544;28;20451;-62
2023/10/27 11:22:01;;;;;;;2.27;1.53;;;14.10;98.00;;;;;;5071689;28;20447;-63
2023/10/27 11:24:28;;;;;;;2.80;1.53;;;14.40;98.00;;;;;;5071480;28;20473;-62
2023/10/27 11:26:56;;;;;;;1.60;1.33;;;14.40;98.00;;;;;;5071542;28;20466;-62
2023/10/27 11:29:24;;;;;;;2.80;1.57;;;14.60;98.00;;;;;;5071545;28;20465;-63
2023/10/27 11:31:51;;;;;;;2.90;1.50;;;14.80;98.00;;;;;;5071467;28;20453;-62
2023/10/27 11:34:26;;;;;;;2.57;1.93;;;14.80;98.00;;;;;;5071475;28;20504;-63
2023/10/27 11:37:02;;;;;;;2.67;1.87;;;15.00;98.00;;;;;;5071544;28;20524;-62
2023/10/27 11:39:29;;;;;;;1.80;1.40;;;15.10;98.00;;;;;;5071266;28;20548;-63
2023/10/27 11:42:00;;;;;;;1.50;1.40;;;15.00;98.00;;;;;;5071368;28;20939;-62
2023/10/27 11:44:28;;;;;;;2.90;1.60;;;15.00;98.00;;;;;;5071047;28;20998;-62
2023/10/27 11:46:56;;;;;;;3.90;1.57;;;15.30;98.00;;;;;;5071764;28;20508;-62
2023/10/27 11:49:24;;;;;;;1.63;1.40;;;15.60;98.00;;;;;;5071202;28;21028;-62
2023/10/27 11:51:52;;;;;;;1.40;1.30;;;16.20;98.00;;;;;;5071451;28;20490;-62
2023/10/27 11:54:22;;;;;;;1.97;1.57;;;16.40;98.00;;;;;;5071345;28;20498;-62
2023/10/27 11:56:49;;;;;;;2.10;1.70;;;16.50;98.00;;;;;;5071508;28;20455;-63
2023/10/27 11:59:17;;;;;;;1.77;1.50;;;16.50;98.00;;;;;;5070070;28;20463;-62
2023/10/27 12:01:45;;;;;;;3.23;1.60;;;16.30;98.00;;;;;;5071136;28;20462;-63
2023/10/27 12:04:13;;;;;;;3.80;1.50;;;16.20;98.00;;;;;;5071623;28;20454;-62
2023/10/27 12:06:41;;;;;;;1.90;1.57;;;16.00;98.00;;;;;;5075519;28;21036;-62
2023/10/27 12:09:09;;;;;;;3.30;1.80;;;15.70;98.00;;;;;;5075638;28;20854;-62
2023/10/27 12:11:38;;;;;;;1.93;1.40;;;15.50;98.00;;;;;;5074967;28;20458;-62
2023/10/27 12:14:05;;;;;;;4.73;1.80;;;15.40;98.00;;;;;;5075130;28;20541;-62
2023/10/27 12:16:32;;;;;;;2.37;1.50;;;15.20;98.00;;;;;;5073717;28;20453;-62
2023/10/27 12:19:12;;;;;;;1.67;1.57;;;15.20;98.00;;;;;;5075057;28;20465;-63
2023/10/27 12:21:39;;;;;;;4.60;1.73;;;15.10;98.00;;;;;;5074992;28;20460;-62
2023/10/27 12:24:08;;;;;;;3.90;1.87;;;15.00;98.00;;;;;;5074891;28;20467;-62
2023/10/27 12:26:37;;;;;;;3.07;1.63;;;14.90;98.00;;;;;;5073390;28;20455;-63
2023/10/27 12:29:04;;;;;;;2.07;1.40;;;14.90;98.00;;;;;;5074857;28;20452;-62
2023/10/27 12:31:32;;;;;;;2.00;1.63;;;15.00;98.00;;;;;;5074855;28;20508;-63
2023/10/27 12:33:59;;;;;;;2.00;1.47;;;15.20;98.00;;;;;;5075039;28;20542;-62
2023/10/27 12:36:26;;;;;;;3.70;1.67;;;15.30;98.00;;;;;;5074598;28;20467;-63
2023/10/27 12:38:53;;;;;;;2.33;1.60;;;15.30;98.00;;;;;;5074362;28;20446;-62
2023/10/27 12:41:21;;;;;;;2.80;1.93;;;15.30;98.00;;;;;;5074748;28;20864;-62
2023/10/27 12:43:49;;;;;;;2.60;1.80;;;15.30;98.00;;;;;;5074815;28;20459;-62
2023/10/27 12:46:16;;;;;;;1.77;1.40;;;15.30;98.00;;;;;;5074581;28;20487;-62
2023/10/27 12:48:43;;;;;;;2.10;1.40;;;15.20;98.00;;;;;;5074558;28;20445;-62
2023/10/27 12:51:11;;;;;;;1.40;1.30;;;15.30;98.00;;;;;;5074334;28;20507;-62
2023/10/27 12:53:38;;;;;;;2.50;1.37;;;15.40;98.00;;;;;;5074484;28;20949;-62
2023/10/27 12:56:07;;;;;;;2.60;1.50;;;15.30;98.00;;;;;;5074783;28;20465;-62
2023/10/27 12:58:35;;;;;;;4.40;1.40;;;15.20;98.00;;;;;;5073307;28;20497;-62
2023/10/27 13:01:03;;;;;;;1.80;1.40;;;15.10;98.00;;;;;;5072918;28;20460;-63
2023/10/27 13:03:31;;;;;;;1.50;1.40;;;15.20;98.00;;;;;;5074502;28;20457;-63
2023/10/27 13:05:58;;;;;;;3.50;1.60;;;15.20;98.00;;;;;;5072970;28;20518;-63
2023/10/27 13:08:25;;;;;;;2.70;1.50;;;15.20;98.00;;;;;;5074461;28;20509;-62
2023/10/27 13:10:52;;;;;;;5.60;1.40;;;15.20;98.00;;;;;;5074065;28;20756;-63
2023/10/27 13:13:19;;;;;;;1.87;1.40;;;15.30;98.00;;;;;;5074231;28;20457;-62